createdAt,value
2022-12-26T00:03:25.653Z,15.63
2022-12-26T00:07:07.411Z,10.40
2022-12-26T00:10:49.320Z,14.18
2022-12-26T00:14:31.007Z,16.02
2022-12-26T00:18:12.758Z,14.82
2022-12-26T00:21:54.431Z,12.05
2022-12-26T00:25:36.128Z,14.40
2022-12-26T00:29:20.123Z,8.73
2022-12-26T00:33:01.795Z,4.45
2022-12-26T00:36:43.491Z,3.13
2022-12-26T00:40:27.356Z,5.05
2022-12-26T00:44:09.056Z,5.57
2022-12-26T00:47:50.760Z,7.03
2022-12-26T00:51:33.708Z,6.50
2022-12-26T00:55:15.455Z,5.10
2022-12-26T00:58:58.225Z,6.18
2022-12-26T01:02:40.377Z,8.68
2022-12-26T01:06:22.257Z,9.55
2022-12-26T01:10:05.445Z,10.30
2022-12-26T01:13:47.106Z,11.70
2022-12-26T01:17:28.819Z,8.90
2022-12-26T01:21:10.787Z,6.88
2022-12-26T01:24:58.814Z,5.80
2022-12-26T01:28:40.606Z,5.25
2022-12-26T01:32:22.758Z,15.35
2022-12-26T01:36:04.724Z,6.75
2022-12-26T01:39:46.592Z,7.20
2022-12-26T01:43:50.231Z,9.18
2022-12-26T01:47:38.236Z,4.68
2022-12-26T01:51:21.835Z,10.93
2022-12-26T01:55:04.031Z,11.30
2022-12-26T01:59:09.971Z,6.15
2022-12-26T02:03:10.345Z,6.60
2022-12-26T02:06:52.072Z,5.38
2022-12-26T02:10:39.129Z,5.20
2022-12-26T02:14:20.822Z,2.58
2022-12-26T02:18:02.702Z,4.53
2022-12-26T02:22:10.506Z,5.13
2022-12-26T02:26:01.072Z,7.13
2022-12-26T02:29:57.503Z,4.65
2022-12-26T02:34:04.130Z,7.05
2022-12-26T02:38:18.100Z,5.55
2022-12-26T02:42:32.438Z,6.85
2022-12-26T02:51:02.812Z,8.07
2022-12-26T02:55:24.737Z,7.20
2022-12-26T02:59:56.424Z,8.07
2022-12-26T03:03:56.797Z,11.57
2022-12-26T03:07:57.733Z,3.72
2022-12-26T03:12:03.339Z,6.40
2022-12-26T03:16:09.743Z,8.32
2022-12-26T03:20:18.557Z,4.43
2022-12-26T03:24:00.258Z,5.43
2022-12-26T03:27:41.959Z,5.88
2022-12-26T03:31:24.875Z,4.10
2022-12-26T03:35:12.514Z,2.77
2022-12-26T03:39:08.940Z,3.15
2022-12-26T03:43:44.615Z,3.47
2022-12-26T03:48:06.677Z,3.00
2022-12-26T03:52:24.560Z,2.10
2022-12-26T03:56:35.256Z,1.70
2022-12-26T04:00:37.453Z,2.10
2022-12-26T04:04:37.754Z,7.60
2022-12-26T04:09:04.248Z,3.10
2022-12-26T04:13:04.470Z,1.92
2022-12-26T04:17:34.862Z,1.23
2022-12-26T04:22:09.968Z,4.70
2022-12-26T04:26:30.953Z,0.98
2022-12-26T04:30:31.288Z,2.65
2022-12-26T04:34:37.584Z,2.08
2022-12-26T04:38:41.044Z,4.30
2022-12-26T04:42:41.043Z,2.03
2022-12-26T04:46:23.163Z,5.03
2022-12-26T04:50:12.020Z,3.05
2022-12-26T04:53:53.756Z,3.42
2022-12-26T04:57:35.475Z,1.90
2022-12-26T05:01:37.264Z,1.80
2022-12-26T05:05:37.827Z,6.55
2022-12-26T05:09:35.273Z,3.00
2022-12-26T05:13:16.959Z,3.83
2022-12-26T05:17:17.766Z,4.40
2022-12-26T05:21:20.763Z,2.90
2022-12-26T05:25:20.710Z,3.08
2022-12-26T05:29:04.078Z,2.72
2022-12-26T05:33:04.367Z,6.80
2022-12-26T05:36:48.124Z,4.68
2022-12-26T05:44:12.060Z,3.95
2022-12-26T05:48:00.633Z,4.07
2022-12-26T05:51:42.400Z,6.43
2022-12-26T05:55:24.456Z,5.95
2022-12-26T05:59:06.477Z,4.53
2022-12-26T06:02:48.276Z,4.00
2022-12-26T06:06:30.125Z,5.97
2022-12-26T06:10:11.890Z,4.60
2022-12-26T06:13:53.879Z,7.65
2022-12-26T06:17:35.629Z,6.60
2022-12-26T06:21:19.282Z,6.85
2022-12-26T06:25:01.120Z,5.45
2022-12-26T06:28:43.505Z,6.57
2022-12-26T06:32:25.215Z,2.58
2022-12-26T06:36:08.785Z,3.28
2022-12-26T06:39:50.554Z,5.15
2022-12-26T06:43:33.460Z,4.73
2022-12-26T06:47:15.207Z,4.68
2022-12-26T06:50:58.147Z,3.25
2022-12-26T06:54:39.889Z,10.03
2022-12-26T06:58:21.938Z,10.05
2022-12-26T07:02:03.751Z,7.28
2022-12-26T07:05:45.537Z,5.88
2022-12-26T07:09:33.450Z,5.03
2022-12-26T07:13:15.674Z,8.52
2022-12-26T07:16:57.376Z,3.90
2022-12-26T07:20:39.243Z,8.40
2022-12-26T07:24:21.659Z,4.22
2022-12-26T07:28:03.943Z,5.05
2022-12-26T07:31:45.759Z,5.63
2022-12-26T07:35:27.518Z,4.88
2022-12-26T07:39:09.538Z,7.20
2022-12-26T07:42:53.652Z,5.50
2022-12-26T07:46:35.448Z,4.20
2022-12-26T07:50:17.380Z,7.78
2022-12-26T07:53:59.050Z,6.03
2022-12-26T07:57:49.405Z,5.93
2022-12-26T08:01:32.700Z,9.93
2022-12-26T08:05:14.704Z,5.93
2022-12-26T08:08:56.528Z,10.52
2022-12-26T08:12:38.229Z,11.45
2022-12-26T08:16:20.129Z,7.78
2022-12-26T08:20:01.910Z,8.73
2022-12-26T08:23:43.668Z,9.50
2022-12-26T08:27:25.347Z,9.93
2022-12-26T08:31:08.216Z,11.55
2022-12-26T08:34:50.065Z,10.40
2022-12-26T08:38:33.758Z,15.88
2022-12-26T08:42:15.817Z,9.52
2022-12-26T08:46:02.329Z,9.43
2022-12-26T08:49:44.343Z,9.45
2022-12-26T08:53:26.397Z,10.30
2022-12-26T08:57:08.127Z,10.05
2022-12-26T09:00:55.081Z,11.88
2022-12-26T09:04:37.321Z,12.25
2022-12-26T09:08:19.112Z,15.25
2022-12-26T09:12:00.870Z,8.45
2022-12-26T09:15:42.712Z,11.93
2022-12-26T09:19:24.713Z,12.90
2022-12-26T09:23:10.813Z,11.02
2022-12-26T09:26:52.494Z,13.57
2022-12-26T09:30:34.310Z,9.05
2022-12-26T09:34:16.116Z,10.10
2022-12-26T09:37:57.826Z,9.05
2022-12-26T09:42:15.225Z,12.70
2022-12-26T09:46:07.312Z,12.25
2022-12-26T09:49:56.456Z,9.90
2022-12-26T09:53:41.811Z,8.32
2022-12-26T09:57:42.574Z,9.82
2022-12-26T10:01:34.412Z,14.80
2022-12-26T10:05:16.254Z,15.45
2022-12-26T10:09:17.432Z,12.25
2022-12-26T10:13:19.371Z,10.93
2022-12-26T10:17:05.603Z,12.98
2022-12-26T10:20:54.075Z,14.50
2022-12-26T10:24:37.281Z,12.15
2022-12-26T10:28:31.985Z,13.07
2022-12-26T10:32:18.088Z,7.90
2022-12-26T10:36:01.318Z,8.10
2022-12-26T10:39:52.549Z,10.13
2022-12-26T10:43:34.491Z,6.60
2022-12-26T10:47:24.804Z,9.32
2022-12-26T10:51:06.781Z,7.20
2022-12-26T10:54:52.436Z,4.45
2022-12-26T10:59:04.700Z,7.40
2022-12-26T11:02:46.526Z,8.10
2022-12-26T11:06:39.160Z,5.38
2022-12-26T11:10:22.690Z,3.25
2022-12-26T11:14:04.378Z,5.95
2022-12-26T11:17:47.711Z,6.65
2022-12-26T11:21:30.267Z,7.20
2022-12-26T11:25:12.000Z,5.95
2022-12-26T11:29:24.499Z,7.68
2022-12-26T11:33:13.871Z,4.28
2022-12-26T11:36:56.378Z,6.72
2022-12-26T11:40:39.591Z,24.83
2022-12-26T11:44:34.460Z,4.75
2022-12-26T11:48:23.353Z,10.10
2022-12-26T11:52:37.518Z,5.13
2022-12-26T11:56:19.648Z,5.97
2022-12-26T12:00:19.612Z,4.32
2022-12-26T12:04:01.324Z,5.65
2022-12-26T12:07:46.415Z,9.18
2022-12-26T12:12:05.533Z,4.50
2022-12-26T12:16:03.677Z,2.83
2022-12-26T12:19:48.764Z,3.33
2022-12-26T12:23:36.482Z,2.20
2022-12-26T12:27:32.752Z,5.60
2022-12-26T12:31:23.921Z,3.15
2022-12-26T12:35:28.937Z,5.15
2022-12-26T12:39:20.790Z,5.65
2022-12-26T12:43:09.387Z,4.53
2022-12-26T12:47:04.167Z,4.35
2022-12-26T12:51:13.885Z,4.28
2022-12-26T12:55:25.404Z,4.70
2022-12-26T12:59:16.359Z,9.10
2022-12-26T13:03:16.092Z,6.57
2022-12-26T13:07:06.108Z,9.30
2022-12-26T13:11:11.207Z,5.38
2022-12-26T13:15:01.511Z,4.82
2022-12-26T13:18:53.699Z,9.07
2022-12-26T13:23:02.399Z,6.05
2022-12-26T13:26:47.443Z,11.77
2022-12-26T13:30:29.395Z,9.40
2022-12-26T13:34:18.553Z,7.97
2022-12-26T13:38:00.275Z,12.15
2022-12-26T13:42:32.222Z,7.28
2022-12-26T13:46:35.073Z,3.70
2022-12-26T13:50:56.122Z,4.20
2022-12-26T13:54:47.585Z,3.30
2022-12-26T13:58:32.643Z,4.25
2022-12-26T14:03:16.227Z,2.50
2022-12-26T14:07:07.940Z,1.42
2022-12-26T14:11:06.673Z,3.23
2022-12-26T14:15:16.586Z,3.00
2022-12-26T14:19:32.625Z,1.58
2022-12-26T14:23:29.401Z,5.32
2022-12-26T14:27:26.108Z,3.05
2022-12-26T14:31:23.802Z,5.65
2022-12-26T14:35:34.100Z,3.20
2022-12-26T14:40:20.867Z,3.95
2022-12-26T14:44:17.319Z,4.15
2022-12-26T14:47:59.185Z,6.80
2022-12-26T14:51:41.021Z,2.17
2022-12-26T14:55:45.643Z,2.45
2022-12-26T14:59:32.290Z,6.70
2022-12-26T15:03:30.990Z,2.50
2022-12-26T15:07:27.079Z,2.30
2022-12-26T15:11:45.781Z,7.40
2022-12-26T15:15:30.961Z,5.28
2022-12-26T15:19:37.203Z,3.30
2022-12-26T15:23:37.675Z,4.00
2022-12-26T15:27:28.443Z,3.58
2022-12-26T15:31:25.307Z,7.90
2022-12-26T15:35:21.404Z,6.78
2022-12-26T15:39:13.619Z,6.05
2022-12-26T15:43:07.160Z,7.13
2022-12-26T15:47:22.072Z,5.32
2022-12-26T15:51:23.106Z,8.50
2022-12-26T15:55:26.005Z,7.38
2022-12-26T15:59:22.873Z,6.22
2022-12-26T16:03:26.130Z,4.95
2022-12-26T16:07:09.063Z,5.07
2022-12-26T16:11:27.529Z,8.27
2022-12-26T16:15:09.265Z,11.40
2022-12-26T16:18:51.124Z,7.80
2022-12-26T16:22:49.421Z,10.43
2022-12-26T16:26:31.619Z,6.40
2022-12-26T16:30:22.309Z,7.78
2022-12-26T16:34:04.116Z,5.63
2022-12-26T16:37:45.790Z,6.28
2022-12-26T16:41:29.894Z,8.25
2022-12-26T16:45:18.306Z,4.30
2022-12-26T16:49:00.909Z,5.68
2022-12-26T16:52:46.676Z,7.60
2022-12-26T16:56:32.633Z,5.75
2022-12-26T17:00:18.220Z,15.70
2022-12-26T17:04:01.161Z,9.18
2022-12-26T17:07:45.017Z,9.73
2022-12-26T17:15:22.731Z,13.02
2022-12-26T17:19:19.399Z,12.13
2022-12-26T17:23:01.137Z,9.40
2022-12-26T17:26:43.533Z,11.32
2022-12-26T17:30:31.008Z,8.00
2022-12-26T17:34:24.836Z,5.97
2022-12-26T17:38:19.665Z,5.25
2022-12-26T17:42:01.545Z,7.80
2022-12-26T17:45:46.830Z,14.45
2022-12-26T17:49:28.960Z,13.02
2022-12-26T17:53:22.402Z,6.65
2022-12-26T17:57:04.174Z,10.75
2022-12-26T18:00:47.078Z,7.82
2022-12-26T18:04:28.790Z,8.07
2022-12-26T18:08:31.457Z,19.13
2022-12-26T18:12:14.044Z,26.52
2022-12-26T18:15:56.268Z,33.20
2022-12-26T18:19:38.359Z,39.05
2022-12-26T18:23:20.100Z,20.30
2022-12-26T18:27:01.755Z,17.55
2022-12-26T18:30:43.941Z,17.83
2022-12-26T18:34:25.931Z,13.48
2022-12-26T18:38:07.695Z,13.38
2022-12-26T18:41:49.379Z,15.82
2022-12-26T18:45:31.253Z,15.63
2022-12-26T18:49:13.062Z,13.65
2022-12-26T18:52:54.981Z,12.57
2022-12-26T18:56:36.662Z,11.77
2022-12-26T19:00:18.910Z,20.25
2022-12-26T19:04:00.645Z,14.75
2022-12-26T19:07:42.398Z,9.95
2022-12-26T19:11:24.232Z,10.77
2022-12-26T19:15:06.350Z,12.82
2022-12-26T19:18:50.267Z,9.48
2022-12-26T19:22:32.196Z,10.63
2022-12-26T19:26:16.057Z,9.38
2022-12-26T19:33:39.555Z,11.73
2022-12-26T19:37:21.519Z,12.70
2022-12-26T19:41:11.124Z,10.85
2022-12-26T19:44:52.917Z,12.52
2022-12-26T19:48:35.238Z,10.23
2022-12-26T19:52:16.928Z,22.80
2022-12-26T19:55:58.584Z,14.95
2022-12-26T19:59:40.496Z,18.88
2022-12-26T20:03:22.417Z,14.05
2022-12-26T20:07:04.110Z,8.98
2022-12-26T20:10:45.876Z,8.50
2022-12-26T20:14:27.634Z,5.78
2022-12-26T20:18:13.596Z,5.40
2022-12-26T20:21:56.798Z,13.93
2022-12-26T20:25:38.659Z,12.52
2022-12-26T20:29:20.438Z,8.13
2022-12-26T20:33:02.108Z,11.63
2022-12-26T20:36:43.824Z,7.97
2022-12-26T20:40:25.805Z,6.35
2022-12-26T20:44:07.595Z,6.97
2022-12-26T20:47:49.492Z,8.30
2022-12-26T20:51:36.941Z,10.10
2022-12-26T20:55:19.380Z,9.20
2022-12-26T20:59:01.339Z,14.35
2022-12-26T21:02:43.104Z,4.57
2022-12-26T21:06:28.101Z,8.27
2022-12-26T21:10:11.864Z,7.85
2022-12-26T21:17:36.924Z,8.05
2022-12-26T21:21:23.699Z,6.72
2022-12-26T21:25:06.130Z,8.23
2022-12-26T21:28:48.012Z,5.72
2022-12-26T21:32:29.697Z,5.13
2022-12-26T21:36:12.190Z,7.85
2022-12-26T21:39:54.049Z,7.07
2022-12-26T21:43:35.912Z,8.73
2022-12-26T21:47:17.704Z,8.90
2022-12-26T21:50:59.684Z,6.38
2022-12-26T21:54:59.889Z,13.52
2022-12-26T21:59:00.253Z,13.57
2022-12-26T22:03:17.375Z,12.18
2022-12-26T22:06:59.088Z,8.55
2022-12-26T22:11:02.632Z,10.32
2022-12-26T22:14:44.317Z,10.20
2022-12-26T22:18:26.351Z,8.68
2022-12-26T22:22:08.176Z,8.43
2022-12-26T22:25:56.326Z,10.75
2022-12-26T22:29:38.199Z,8.05
2022-12-26T22:33:19.933Z,10.80
2022-12-26T22:37:01.653Z,8.60
2022-12-26T22:40:51.507Z,7.28
2022-12-26T22:44:33.530Z,9.52
2022-12-26T22:48:15.583Z,11.05
2022-12-26T22:51:57.260Z,9.60
2022-12-26T22:55:49.255Z,9.38
2022-12-26T23:00:06.435Z,5.20
2022-12-26T23:03:32.756Z,6.97
2022-12-26T23:07:15.295Z,11.07
2022-12-26T23:10:58.374Z,10.88
2022-12-26T23:14:40.125Z,7.20
2022-12-26T23:18:43.650Z,4.30
2022-12-26T23:22:25.556Z,7.68
2022-12-26T23:26:07.292Z,9.95
2022-12-26T23:30:10.031Z,10.38
2022-12-26T23:33:51.694Z,9.57
2022-12-26T23:37:33.463Z,10.85
2022-12-26T23:41:15.329Z,8.13
2022-12-26T23:44:57.146Z,13.15
2022-12-26T23:48:39.047Z,8.73
2022-12-26T23:52:24.180Z,9.60
2022-12-26T23:56:09.205Z,6.50
2022-12-26T23:59:51.499Z,4.97
